Time;durP1;ratioP1;P1;durP2;ratioP2;P2;SDS_P1;SDS_P2;PMS_P1;PMS_P2;Temp;Humidity;BMP_temperature;BMP_pressure;BME280_temperature;BME280_humidity;BME280_pressure;Samples;Min_cycle;Max_cycle;Signal;HPM_P1;HPM_P2
2022/06/06 00:02:20;;;;;;;46.38;26.67;;;;;;;19.49;62.63;101256.16;5033372;28;19921;-65
2022/06/06 00:04:47;;;;;;;45.70;25.85;;;;;;;19.46;62.77;101251.88;5031169;28;20076;-65
2022/06/06 00:07:14;;;;;;;45.72;25.90;;;;;;;19.45;62.64;101252.88;5034844;28;20503;-65
2022/06/06 00:09:40;;;;;;;51.70;26.30;;;;;;;19.46;62.98;101253.75;5034507;28;20046;-66
2022/06/06 00:12:08;;;;;;;43.38;25.80;;;;;;;19.44;63.18;101248.44;5024877;28;20045;-67
2022/06/06 00:14:35;;;;;;;45.92;25.48;;;;;;;19.43;63.27;101248.59;5025109;28;20125;-65
2022/06/06 00:17:02;;;;;;;48.67;24.33;;;;;;;19.43;63.19;101241.28;5025562;28;20041;-66
2022/06/06 00:19:29;;;;;;;43.50;23.95;;;;;;;19.44;62.81;101234.81;5034984;28;20069;-66
2022/06/06 00:22:06;;;;;;;42.53;25.10;;;;;;;19.43;63.18;101245.88;5025771;28;20048;-67
2022/06/06 00:24:33;;;;;;;43.20;23.77;;;;;;;19.42;62.99;101231.41;5025337;28;20060;-66
2022/06/06 00:27:00;;;;;;;39.97;24.13;;;;;;;19.43;63.26;101244.00;5034980;28;20118;-66
2022/06/06 00:29:27;;;;;;;39.65;23.02;;;;;;;19.42;63.31;101245.03;5034898;28;20539;-65
2022/06/06 00:34:54;;;;;;;44.63;24.13;;;;;;;19.43;63.12;101249.47;5034789;28;20041;-66
2022/06/06 00:37:30;;;;;;;40.67;23.17;;;;;;;19.44;63.10;101240.28;5034743;28;20049;-66
2022/06/06 00:39:58;;;;;;;42.30;24.95;;;;;;;19.47;63.21;101239.09;5034758;28;20044;-66
2022/06/06 00:42:36;;;;;;;38.28;23.20;;;;;;;19.47;62.97;101241.81;5034695;28;20081;-66
2022/06/06 00:45:14;;;;;;;38.03;22.60;;;;;;;19.48;63.00;101232.66;5039145;28;20039;-66
2022/06/06 00:47:42;;;;;;;45.13;25.25;;;;;;;19.50;62.81;101242.38;5039164;28;20049;-66
2022/06/06 00:50:18;;;;;;;38.78;22.63;;;;;;;19.50;63.06;101234.19;5027555;28;20042;-66
2022/06/06 00:52:49;;;;;;;37.45;22.90;;;;;;;19.52;62.83;101243.09;5029596;28;20048;-65
2022/06/06 00:55:20;;;;;;;40.88;22.80;;;;;;;19.56;62.95;101246.38;5034602;28;20052;-66
2022/06/06 00:57:56;;;;;;;38.17;22.48;;;;;;;19.58;62.72;101239.75;5034330;28;20045;-65
2022/06/06 01:00:23;;;;;;;45.55;25.30;;;;;;;19.60;63.20;101240.44;5034613;28;20045;-66
2022/06/06 01:02:56;;;;;;;45.63;24.90;;;;;;;19.61;63.19;101244.88;5034552;28;20052;-66
2022/06/06 01:05:25;;;;;;;45.20;25.30;;;;;;;19.62;62.84;101238.41;5028215;28;20045;-66
2022/06/06 01:07:52;;;;;;;46.08;26.52;;;;;;;19.62;62.79;101238.41;5034609;28;20041;-66
2022/06/06 01:10:19;;;;;;;47.65;26.58;;;;;;;19.64;62.83;101239.13;5034703;28;20410;-67
2022/06/06 01:12:49;;;;;;;44.80;25.77;;;;;;;19.63;62.92;101234.69;5033836;28;20064;-66
2022/06/06 01:15:21;;;;;;;40.28;25.95;;;;;;;19.61;62.89;101242.16;5033635;28;20059;-67
2022/06/06 01:18:16;;;;;;;46.53;26.48;;;;;;;19.61;63.30;101241.31;5033697;28;20042;-66
2022/06/06 01:21:38;;;;;;;47.92;25.05;;;;;;;19.57;63.18;101240.75;5033644;28;20533;-66
2022/06/06 01:24:44;;;;;;;51.25;25.95;;;;;;;19.58;63.01;101238.88;4998209;28;20042;-66
2022/06/06 01:27:29;;;;;;;43.97;25.58;;;;;;;19.59;63.14;101238.72;5010781;28;20052;-66
2022/06/06 01:30:09;;;;;;;45.05;26.67;;;;;;;19.61;63.50;101239.44;5020772;28;20046;-66
2022/06/06 01:32:42;;;;;;;43.45;25.95;;;;;;;19.63;63.17;101240.13;5033119;28;20502;-66
2022/06/06 01:35:10;;;;;;;46.28;26.50;;;;;;;19.65;63.40;101238.09;5035398;28;20132;-67
2022/06/06 01:37:41;;;;;;;44.97;25.85;;;;;;;19.67;63.68;101241.53;5033376;28;20042;-66
2022/06/06 01:40:13;;;;;;;44.78;26.77;;;;;;;19.70;63.44;101243.06;5037723;28;20051;-66
2022/06/06 01:43:02;;;;;;;47.42;27.58;;;;;;;19.69;63.57;101246.81;5031499;28;20483;-65
2022/06/06 01:45:47;;;;;;;50.10;26.23;;;;;;;19.70;63.72;101242.22;5032607;28;20049;-66
2022/06/06 01:48:17;;;;;;;52.42;27.88;;;;;;;19.73;63.17;101237.31;5031611;28;20094;-67
2022/06/06 01:50:45;;;;;;;47.70;27.50;;;;;;;19.75;63.36;101237.16;5032690;28;20051;-66
2022/06/06 01:53:17;;;;;;;48.03;26.73;;;;;;;19.76;63.19;101234.25;5032744;28;20084;-66
2022/06/06 01:55:46;;;;;;;51.67;27.27;;;;;;;19.76;63.54;101231.53;5032622;28;20063;-66
2022/06/06 01:58:30;;;;;;;54.58;26.75;;;;;;;19.76;63.37;101228.81;5032474;28;20043;-66
2022/06/06 02:00:57;;;;;;;48.28;26.65;;;;;;;19.78;63.40;101225.94;5024129;28;20244;-66
2022/06/06 02:03:24;;;;;;;53.47;29.05;;;;;;;19.78;63.53;101228.66;5032301;28;20029;-67
2022/06/06 02:05:51;;;;;;;51.55;27.98;;;;;;;19.77;63.24;101218.75;5032737;28;20049;-66
2022/06/06 02:08:19;;;;;;;50.83;28.55;;;;;;;19.77;63.24;101229.66;5032250;28;20402;-66
2022/06/06 02:10:46;;;;;;;53.15;30.52;;;;;;;19.79;63.35;101219.47;5032271;28;20491;-66
2022/06/06 02:13:13;;;;;;;55.05;31.88;;;;;;;19.76;63.28;101220.63;5032191;28;20052;-67
2022/06/06 02:15:40;;;;;;;56.45;30.73;;;;;;;19.74;63.21;101209.03;5032302;28;20132;-66
2022/06/06 02:18:07;;;;;;;54.15;30.65;;;;;;;19.74;63.46;101213.63;5032411;28;20120;-66
2022/06/06 02:20:35;;;;;;;57.35;30.77;;;;;;;19.76;63.33;101208.88;5035342;28;20045;-66
2022/06/06 02:23:04;;;;;;;59.45;33.22;;;;;;;19.76;63.31;101206.16;5033517;28;20048;-67
2022/06/06 02:25:33;;;;;;;51.60;32.25;;;;;;;19.74;63.26;101209.03;5033756;28;20127;-67
2022/06/06 02:28:01;;;;;;;53.63;32.10;;;;;;;19.72;63.16;101210.22;5034646;28;20430;-66
2022/06/06 02:30:32;;;;;;;57.67;31.88;;;;;;;19.72;63.38;101199.31;5033465;28;20072;-66
2022/06/06 02:33:01;;;;;;;59.25;33.75;;;;;;;19.74;63.35;101200.00;5039567;28;20037;-66
2022/06/06 02:35:31;;;;;;;54.72;32.60;;;;;;;19.76;63.26;101190.66;5046537;28;20115;-66
2022/06/06 02:37:58;;;;;;;48.10;29.55;;;;;;;19.77;63.25;101191.50;5033201;28;20038;-66
2022/06/06 02:40:27;;;;;;;53.20;30.30;;;;;;;19.76;63.28;101193.38;5033046;28;20382;-66
2022/06/06 02:42:59;;;;;;;50.92;30.58;;;;;;;19.76;63.59;101185.22;5033174;28;20046;-67
2022/06/06 02:45:25;;;;;;;50.08;29.30;;;;;;;19.76;63.26;101187.06;5031641;28;20053;-66
2022/06/06 02:47:55;;;;;;;52.10;29.45;;;;;;;19.75;63.48;101186.22;5018870;28;20041;-66
2022/06/06 02:50:25;;;;;;;49.53;30.23;;;;;;;19.75;63.55;101183.50;5032745;28;20487;-66
2022/06/06 02:52:53;;;;;;;48.88;28.02;;;;;;;19.76;63.67;101187.94;5032547;28;20084;-65
2022/06/06 02:55:20;;;;;;;49.97;28.17;;;;;;;19.77;63.68;101188.78;5032315;28;20053;-66
2022/06/06 02:57:48;;;;;;;45.88;27.05;;;;;;;19.78;63.67;101182.31;5032378;28;20052;-66
2022/06/06 03:00:26;;;;;;;47.00;27.02;;;;;;;19.79;63.44;101184.03;5032372;28;20041;-66
2022/06/06 03:02:57;;;;;;;44.50;27.45;;;;;;;19.79;63.31;101190.34;5043003;28;20465;-66
2022/06/06 03:05:34;;;;;;;40.60;25.17;;;;;;;19.77;63.68;101175.16;5032388;28;20132;-66
2022/06/06 03:08:16;;;;;;;44.90;28.30;;;;;;;19.75;63.67;101185.38;5031086;28;20380;-66
2022/06/06 03:11:00;;;;;;;47.17;27.08;;;;;;;19.73;63.41;101184.66;5032403;28;20124;-66
2022/06/06 03:14:03;;;;;;;41.80;26.90;;;;;;;19.71;63.62;101182.09;5018652;28;20388;-66
2022/06/06 03:23:02;;;;;;;50.75;29.00;;;;;;;19.70;63.31;101201.34;5031639;28;20060;-66
2022/06/06 03:25:53;;;;;;;51.17;29.77;;;;;;;19.66;63.28;101200.81;5019098;28;20403;-66
2022/06/06 03:28:28;;;;;;;53.05;29.83;;;;;;;19.65;63.53;101196.38;5030608;28;20045;-65
2022/06/06 03:31:17;;;;;;;48.22;29.45;;;;;;;19.61;63.44;101201.28;5037102;28;20046;-66
2022/06/06 03:33:45;;;;;;;49.97;29.42;;;;;;;19.61;63.47;101198.56;5031420;28;20037;-65
2022/06/06 03:36:21;;;;;;;48.30;28.35;;;;;;;19.61;63.67;101203.16;5037506;28;20496;-65
2022/06/06 03:39:01;;;;;;;49.88;29.95;;;;;;;19.61;63.23;101206.72;5027117;28;20069;-66
2022/06/06 03:41:42;;;;;;;42.08;27.50;;;;;;;19.62;63.22;101208.44;5023572;28;20042;-65
2022/06/06 03:44:19;;;;;;;44.92;27.30;;;;;;;19.63;63.56;101210.16;5039180;28;20047;-66
2022/06/06 03:46:51;;;;;;;48.03;28.70;;;;;;;19.64;63.28;101211.88;5031643;28;20124;-66
2022/06/06 03:49:44;;;;;;;45.97;26.60;;;;;;;19.63;63.23;101210.16;5018586;28;20491;-66
2022/06/06 03:52:24;;;;;;;48.35;26.75;;;;;;;19.63;62.97;101206.56;5031498;28;20048;-66
2022/06/06 03:55:07;;;;;;;48.33;27.15;;;;;;;19.60;63.40;101215.91;5031587;28;20037;-66
2022/06/06 03:57:35;;;;;;;47.50;26.90;;;;;;;19.59;63.01;101216.06;5031280;28;20128;-66
2022/06/06 04:00:12;;;;;;;43.75;25.27;;;;;;;19.56;63.22;101214.53;5031834;28;20051;-66
2022/06/06 04:02:45;;;;;;;40.25;25.08;;;;;;;19.53;62.99;101223.03;5031886;28;20518;-65
2022/06/06 04:05:17;;;;;;;42.08;25.02;;;;;;;19.51;63.08;101225.00;5031087;28;20053;-66
2022/06/06 04:07:45;;;;;;;43.15;26.65;;;;;;;19.51;63.11;101218.72;5029961;28;20041;-66
2022/06/06 04:10:13;;;;;;;43.85;26.70;;;;;;;19.53;62.84;101222.16;5031203;28;20049;-66
2022/06/06 04:13:10;;;;;;;41.53;25.35;;;;;;;19.52;62.88;101226.75;5037904;28;20047;-66
2022/06/06 04:15:49;;;;;;;37.10;24.38;;;;;;;19.53;62.86;101223.03;5031128;28;20042;-66
2022/06/06 04:18:41;;;;;;;41.60;25.55;;;;;;;19.52;63.05;101223.16;5016986;28;20136;-66
2022/06/06 04:21:25;;;;;;;41.30;24.25;;;;;;;19.52;62.73;101231.31;5031322;28;20041;-66
2022/06/06 04:24:09;;;;;;;41.55;25.60;;;;;;;19.48;62.98;101227.19;5020869;28;20376;-67
2022/06/06 04:26:48;;;;;;;36.83;24.02;;;;;;;19.46;62.71;101232.81;5039935;28;20044;-66
2022/06/06 04:29:45;;;;;;;40.72;23.17;;;;;;;19.41;62.87;101235.13;5038006;28;20034;-66
2022/06/06 04:32:48;;;;;;;34.55;24.20;;;;;;;19.41;62.81;101239.72;5029670;28;20042;-66
2022/06/06 04:35:31;;;;;;;35.13;23.17;;;;;;;19.43;62.40;101245.88;5034491;28;20056;-66
2022/06/06 04:38:07;;;;;;;35.58;24.08;;;;;;;19.39;62.45;101245.34;5035199;28;20038;-67
2022/06/06 04:41:11;;;;;;;32.22;23.27;;;;;;;19.36;62.53;101246.50;5040205;28;20038;-66
2022/06/06 04:43:45;;;;;;;34.17;23.40;;;;;;;19.35;62.46;101260.28;5030028;28;20080;-66
2022/06/06 04:46:21;;;;;;;35.65;22.80;;;;;;;19.35;62.35;101252.09;5034503;28;20034;-66
2022/06/06 04:48:50;;;;;;;29.65;21.63;;;;;;;19.34;62.26;101256.69;5034185;28;20406;-66
2022/06/06 04:51:20;;;;;;;32.50;22.13;;;;;;;19.34;62.20;101256.69;5034133;28;20045;-66
2022/06/06 04:53:52;;;;;;;31.85;21.70;;;;;;;19.34;62.27;101256.69;5030151;28;20064;-66
2022/06/06 04:56:20;;;;;;;29.42;20.25;;;;;;;19.34;62.08;101255.84;5034328;28;20049;-65
2022/06/06 04:58:50;;;;;;;32.63;19.48;;;;;;;19.32;62.16;101261.44;5033454;28;20064;-65
2022/06/06 05:01:17;;;;;;;25.85;16.67;;;;;;;19.31;62.09;101264.28;5027316;28;20046;-65
2022/06/06 05:03:45;;;;;;;24.80;16.42;;;;;;;19.29;61.79;101258.16;5017098;28;20061;-66
2022/06/06 05:06:19;;;;;;;26.35;16.95;;;;;;;19.25;61.86;101262.19;5033563;28;20116;-66
2022/06/06 05:09:06;;;;;;;42.15;17.92;;;;;;;19.25;62.02;101262.19;5031974;28;20042;-65
2022/06/06 05:12:12;;;;;;;26.02;16.95;;;;;;;19.20;61.58;101265.38;5029910;28;20059;-66
2022/06/06 05:15:23;;;;;;;23.10;16.85;;;;;;;19.16;61.82;101272.16;5026211;28;20049;-66
2022/06/06 05:17:56;;;;;;;26.35;16.95;;;;;;;19.15;61.51;101261.41;5014723;28;20140;-65
2022/06/06 05:20:26;;;;;;;23.52;17.83;;;;;;;19.14;61.22;101265.16;5030146;28;20057;-65
2022/06/06 05:23:11;;;;;;;26.40;19.35;;;;;;;19.08;61.12;101277.50;5030178;28;20045;-66
2022/06/06 05:26:03;;;;;;;25.60;19.15;;;;;;;19.03;60.79;101261.63;5031873;28;20530;-65
2022/06/06 05:28:39;;;;;;;26.25;18.65;;;;;;;18.99;61.00;101271.13;5029071;28;20049;-66
2022/06/06 05:32:01;;;;;;;26.90;20.13;;;;;;;18.95;60.67;101267.00;5034218;28;20041;-66
2022/06/06 05:34:44;;;;;;;26.63;20.50;;;;;;;18.95;60.67;101269.72;5008330;28;20529;-66
2022/06/06 05:37:40;;;;;;;26.65;20.92;;;;;;;18.91;60.62;101271.03;5031490;28;20069;-66
2022/06/06 05:40:33;;;;;;;27.20;21.13;;;;;;;18.89;60.75;101278.50;5027905;28;20408;-66
2022/06/06 05:43:45;;;;;;;26.15;20.45;;;;;;;18.88;60.63;101282.22;5030899;28;20387;-67
2022/06/06 05:46:19;;;;;;;24.67;21.02;;;;;;;18.94;60.91;101283.47;5031019;28;20458;-66
2022/06/06 05:49:05;;;;;;;29.10;22.42;;;;;;;18.96;60.96;101287.75;5026706;28;20149;-66
2022/06/06 05:51:36;;;;;;;30.70;21.73;;;;;;;19.03;60.92;101290.72;5033298;28;20450;-66
2022/06/06 05:54:20;;;;;;;24.95;20.70;;;;;;;19.07;60.85;101292.13;5030072;28;20080;-66
2022/06/06 05:57:07;;;;;;;25.67;21.10;;;;;;;19.09;60.22;101294.69;5030800;28;20044;-66
2022/06/06 06:00:00;;;;;;;25.23;20.42;;;;;;;19.12;60.39;101294.38;5032586;28;20492;-66
2022/06/06 06:02:52;;;;;;;25.88;19.77;;;;;;;19.14;60.38;101298.66;5030207;28;20057;-66
2022/06/06 06:05:29;;;;;;;32.08;21.00;;;;;;;19.13;60.22;101296.09;5028745;28;20407;-66
2022/06/06 06:08:17;;;;;;;25.52;19.25;;;;;;;19.17;60.20;101300.22;5026598;28;20041;-65
2022/06/06 06:11:11;;;;;;;23.27;19.88;;;;;;;19.19;59.83;101303.66;5024889;28;20124;-66
2022/06/06 06:13:50;;;;;;;22.52;17.20;;;;;;;19.20;59.86;101302.66;5021430;28;20066;-66
2022/06/06 06:16:21;;;;;;;20.75;16.58;;;;;;;19.22;59.82;101297.91;5030055;28;20468;-65
2022/06/06 06:18:53;;;;;;;22.83;16.88;;;;;;;19.26;59.90;101293.84;5029474;28;20082;-66
2022/06/06 06:21:33;;;;;;;24.30;18.20;;;;;;;19.30;59.54;101307.00;5032317;28;20113;-66
2022/06/06 06:24:10;;;;;;;18.75;15.35;;;;;;;19.36;59.58;101303.69;5029561;28;20037;-65
2022/06/06 06:26:39;;;;;;;17.52;14.60;;;;;;;19.40;59.16;101304.25;5023954;28;20046;-65
2022/06/06 06:29:09;;;;;;;21.33;15.75;;;;;;;19.48;59.63;101308.91;5025977;28;20046;-66
2022/06/06 06:32:06;;;;;;;16.60;14.60;;;;;;;19.57;59.19;101311.59;5029049;28;20034;-66
2022/06/06 06:34:57;;;;;;;15.95;14.07;;;;;;;19.63;59.27;101313.69;5031557;28;20132;-65
2022/06/06 06:37:42;;;;;;;16.13;13.60;;;;;;;19.70;58.77;101318.53;5023931;28;20052;-65
2022/06/06 06:40:34;;;;;;;15.80;13.75;;;;;;;19.77;59.13;101312.28;5030572;28;20404;-65
2022/06/06 06:43:39;;;;;;;17.02;13.02;;;;;;;19.90;59.16;101318.19;5027319;28;20487;-66
2022/06/06 06:46:36;;;;;;;14.93;12.63;;;;;;;20.00;58.32;101312.63;5032298;28;20041;-66
2022/06/06 06:49:11;;;;;;;14.73;11.98;;;;;;;20.10;58.42;101318.03;5026838;28;20056;-66
2022/06/06 06:51:48;;;;;;;;;;;;;;;20.21;58.72;101321.34;5022550;28;20041;-64
2022/06/06 06:54:39;;;;;;;15.00;12.80;;;;;;;20.41;58.19;101312.97;5025080;28;19921;-67
2022/06/06 06:57:24;;;;;;;14.88;12.95;;;;;;;20.52;57.76;101319.00;5031598;28;20075;-69
2022/06/06 07:00:03;;;;;;;17.00;13.25;;;;;;;20.66;58.14;101325.72;5026133;28;20053;-68
2022/06/06 07:09:13;;;;;;;11.32;8.65;;;;;;;21.21;56.79;101328.03;5029614;28;20038;-68
2022/06/06 07:11:45;;;;;;;10.75;7.95;;;;;;;21.32;56.92;101332.34;5021145;28;20033;-68
2022/06/06 07:14:44;;;;;;;11.40;8.27;;;;;;;21.41;56.58;101332.19;5031347;28;20480;-68
2022/06/06 07:17:13;;;;;;;8.32;6.45;;;;;;;21.45;55.96;101333.56;5036795;28;20069;-68
2022/06/06 07:19:52;;;;;;;9.60;5.45;;;;;;;21.41;54.99;101329.47;5045968;28;20488;-68
2022/06/06 07:22:27;;;;;;;6.90;5.47;;;;;;;21.34;54.83;101328.44;5037395;28;20059;-68
2022/06/06 07:24:58;;;;;;;6.22;4.43;;;;;;;21.34;54.69;101319.38;5029784;28;20051;-68
2022/06/06 07:27:25;;;;;;;6.50;5.07;;;;;;;21.37;54.73;101322.63;5019739;28;20435;-68
2022/06/06 07:29:52;;;;;;;5.47;3.72;;;;;;;21.53;54.95;101330.84;5026607;28;20124;-68
2022/06/06 07:32:38;;;;;;;8.82;4.43;;;;;;;21.70;54.70;101326.28;5031207;28;20048;-65
2022/06/06 07:35:08;;;;;;;4.45;3.30;;;;;;;21.82;54.60;101335.00;5031419;28;20041;-65
2022/06/06 07:37:50;;;;;;;4.18;2.83;;;;;;;21.88;54.26;101318.78;5038581;28;20037;-65
2022/06/06 07:40:42;;;;;;;4.25;2.72;;;;;;;21.91;53.31;101324.94;5033942;28;20049;-65
2022/06/06 07:43:46;;;;;;;4.47;2.80;;;;;;;21.83;52.88;101339.47;5032731;28;20048;-65
2022/06/06 07:46:52;;;;;;;5.10;2.70;;;;;;;21.72;52.55;101339.78;5019964;28;20482;-66
2022/06/06 07:49:56;;;;;;;3.20;1.98;;;;;;;21.61;52.25;101343.72;5031092;28;20047;-65
2022/06/06 07:52:44;;;;;;;8.27;3.10;;;;;;;21.58;52.71;101340.47;5027672;28;20045;-66
2022/06/06 07:55:20;;;;;;;4.47;2.83;;;;;;;21.55;52.44;101342.50;5030912;28;20033;-66
2022/06/06 07:58:05;;;;;;;4.75;3.10;;;;;;;21.54;53.04;101338.03;5030824;28;20042;-66
2022/06/06 08:00:32;;;;;;;4.47;2.90;;;;;;;21.57;52.65;101339.59;5029598;28;20124;-66
2022/06/06 08:03:23;;;;;;;3.42;2.33;;;;;;;21.59;52.59;101342.16;5030694;28;20303;-66
2022/06/06 08:05:55;;;;;;;5.65;2.20;;;;;;;21.63;52.27;101338.06;5030658;28;20053;-66
2022/06/06 08:08:52;;;;;;;4.03;1.80;;;;;;;21.69;52.13;101342.88;5033123;28;20042;-65
2022/06/06 08:11:36;;;;;;;3.40;1.20;;;;;;;21.80;51.69;101339.78;5035070;28;20442;-65
2022/06/06 08:14:19;;;;;;;1.95;1.52;;;;;;;21.91;51.50;101339.47;5034607;28;20053;-66
2022/06/06 08:16:54;;;;;;;3.35;1.55;;;;;;;22.03;51.83;101329.91;5034333;28;20414;-66
2022/06/06 08:19:23;;;;;;;3.13;2.05;;;;;;;22.16;51.45;101327.50;5034265;28;20041;-66
2022/06/06 08:21:50;;;;;;;4.65;1.40;;;;;;;22.28;51.13;101330.75;5034721;28;20063;-66
2022/06/06 08:24:21;;;;;;;2.60;1.75;;;;;;;22.37;50.65;101331.63;5034221;28;20511;-66
2022/06/06 08:27:12;;;;;;;3.38;1.90;;;;;;;22.42;50.85;101331.94;5034152;28;20029;-68
2022/06/06 08:29:41;;;;;;;2.90;1.40;;;;;;;22.47;50.83;101343.22;5034039;28;20035;-67
2022/06/06 08:32:13;;;;;;;3.20;1.55;;;;;;;22.45;50.20;101346.13;5034119;28;20025;-68
2022/06/06 08:34:40;;;;;;;4.30;1.52;;;;;;;22.39;49.57;101337.75;5034382;28;20038;-68
2022/06/06 08:37:13;;;;;;;7.22;1.50;;;;;;;22.34;50.23;101332.81;5034228;28;20048;-67
2022/06/06 08:39:57;;;;;;;2.28;1.33;;;;;;;22.36;50.14;101324.44;5025159;28;20056;-67
2022/06/06 08:42:56;;;;;;;3.60;1.73;;;;;;;22.37;50.13;101328.88;5034571;28;20129;-68
2022/06/06 08:45:48;;;;;;;1.65;1.30;;;;;;;22.41;49.68;101325.63;5036315;28;20036;-69
2022/06/06 08:48:55;;;;;;;2.28;1.27;;;;;;;22.46;49.82;101323.22;5033942;28;20048;-66
2022/06/06 08:51:47;;;;;;;4.90;1.30;;;;;;;22.52;49.71;101322.50;5033669;28;20056;-66
2022/06/06 08:54:44;;;;;;;2.22;1.00;;;;;;;22.59;49.59;101313.59;5036175;28;20038;-65
2022/06/06 08:57:49;;;;;;;3.70;1.35;;;;;;;22.67;49.58;101314.41;5042471;28;20128;-65
2022/06/06 09:00:22;;;;;;;2.58;1.60;;;;;;;22.82;49.49;101323.63;5033841;28;20045;-66
2022/06/06 09:03:24;;;;;;;2.08;1.55;;;;;;;22.87;49.46;101325.00;5033858;28;20108;-65
2022/06/06 09:06:32;;;;;;;6.15;1.40;;;;;;;22.85;48.93;101314.22;5033983;28;20099;-65
2022/06/06 09:09:14;;;;;;;3.22;1.52;;;;;;;22.81;49.26;101316.44;5033522;28;20054;-66
2022/06/06 09:12:19;;;;;;;2.92;1.33;;;;;;;22.85;48.90;101313.34;5034159;28;20135;-65
2022/06/06 09:15:06;;;;;;;5.63;1.15;;;;;;;22.92;48.88;101322.56;5019889;28;20492;-66
2022/06/06 09:18:08;;;;;;;4.00;1.20;;;;;;;23.00;48.62;101311.56;5033986;28;20048;-67
2022/06/06 09:20:54;;;;;;;6.15;1.20;;;;;;;23.09;48.60;101308.66;5033279;28;20048;-66
2022/06/06 09:23:48;;;;;;;3.90;1.35;;;;;;;23.18;48.36;101309.44;5033670;28;20121;-66
2022/06/06 09:26:46;;;;;;;3.65;1.45;;;;;;;23.25;48.08;101313.19;5033772;28;20319;-66
2022/06/06 09:29:26;;;;;;;3.10;1.05;;;;;;;23.34;48.40;101317.56;5033923;28;20038;-66
2022/06/06 09:35:19;;;;;;;2.58;1.50;;;;;;;23.52;48.42;101311.81;5033792;28;20073;-66
2022/06/06 09:38:12;;;;;;;3.47;1.17;;;;;;;23.64;48.06;101304.88;5024345;28;20053;-66
2022/06/06 09:40:56;;;;;;;2.15;1.17;;;;;;;23.70;48.00;101306.03;5035572;28;20047;-66
2022/06/06 09:44:13;;;;;;;4.93;1.10;;;;;;;23.68;48.00;101303.50;5038688;28;20124;-66
2022/06/06 09:47:00;;;;;;;2.03;1.17;;;;;;;23.88;48.18;101292.03;5043691;28;20384;-66
2022/06/06 09:49:47;;;;;;;2.88;1.40;;;;;;;24.05;48.10;101293.59;5032823;28;20085;-66
2022/06/06 09:52:18;;;;;;;2.33;1.10;;;;;;;24.12;47.95;101299.19;5036477;28;20037;-66
2022/06/06 10:00:53;;;;;;;2.38;1.35;;;;;;;23.81;47.09;101296.56;5014633;28;20049;-68
2022/06/06 10:03:42;;;;;;;3.05;0.95;;;;;;;23.75;47.12;101288.00;5023390;28;20115;-66
2022/06/06 10:06:47;;;;;;;3.85;1.15;;;;;;;23.73;47.35;101286.47;5051288;28;20059;-65
2022/06/06 10:09:50;;;;;;;4.78;1.45;;;;;;;23.82;47.41;101290.03;5032629;28;20046;-66
2022/06/06 10:12:41;;;;;;;4.40;1.13;;;;;;;23.87;46.93;101279.38;5032277;28;20056;-67
2022/06/06 10:15:21;;;;;;;2.58;0.93;;;;;;;23.96;47.24;101281.00;5031248;28;20045;-66
2022/06/06 10:17:51;;;;;;;1.55;1.25;;;;;;;24.06;47.33;101273.34;5031621;28;20484;-67
2022/06/06 10:20:45;;;;;;;3.13;1.20;;;;;;;24.20;47.32;101271.66;5032489;28;20048;-66
2022/06/06 10:23:22;;;;;;;3.38;1.27;;;;;;;24.38;47.00;101273.03;5032301;28;20053;-65
2022/06/06 10:26:05;;;;;;;2.35;1.10;;;;;;;24.53;47.02;101264.81;5032518;28;20049;-65
2022/06/06 10:29:11;;;;;;;4.13;1.25;;;;;;;24.75;47.24;101262.16;5031940;28;20480;-65
2022/06/06 10:31:37;;;;;;;2.00;1.33;;;;;;;24.99;47.16;101257.22;5032929;28;20037;-66
2022/06/06 10:34:04;;;;;;;2.70;0.98;;;;;;;25.22;47.12;101265.28;5032391;28;20049;-66
2022/06/06 10:36:40;;;;;;;2.58;1.15;;;;;;;25.32;46.61;101260.34;5032231;28;20041;-66
2022/06/06 10:39:40;;;;;;;3.00;1.10;;;;;;;25.36;45.70;101255.31;5018364;28;20103;-66
2022/06/06 10:42:14;;;;;;;2.03;1.10;;;;;;;25.36;45.72;101257.22;5036187;28;20045;-65
2022/06/06 10:45:23;;;;;;;2.95;1.00;;;;;;;25.44;45.85;101252.44;5032090;28;20044;-66
2022/06/06 10:48:37;;;;;;;5.13;1.20;;;;;;;25.56;45.03;101250.88;5022652;28;20442;-66
2022/06/06 10:51:42;;;;;;;1.85;1.05;;;;;;;25.66;44.83;101256.06;5004510;28;20056;-65
2022/06/06 10:54:58;;;;;;;3.10;1.20;;;;;;;25.64;44.58;101267.22;5030019;28;20487;-66
2022/06/06 10:57:32;;;;;;;3.63;1.33;;;;;;;25.71;44.25;101255.47;5031058;28;20103;-65
2022/06/06 11:00:11;;;;;;;2.95;1.23;;;;;;;25.72;43.92;101259.91;5031803;28;20049;-66
2022/06/06 11:03:04;;;;;;;1.63;1.20;;;;;;;25.81;44.08;101247.72;5031383;28;20068;-66
2022/06/06 11:06:09;;;;;;;3.08;1.13;;;;;;;25.83;43.37;101245.63;5032443;28;20033;-66
2022/06/06 11:09:12;;;;;;;2.90;1.27;;;;;;;25.74;43.06;101244.91;5022893;28;20136;-66
2022/06/06 11:12:10;;;;;;;1.27;0.95;;;;;;;25.62;42.53;101246.47;5010817;28;20041;-67
2022/06/06 11:14:40;;;;;;;3.78;1.00;;;;;;;25.57;42.54;101254.47;5031348;28;20037;-66
2022/06/06 11:17:26;;;;;;;2.60;0.80;;;;;;;25.58;43.09;101240.50;5031621;28;20541;-66
2022/06/06 11:20:08;;;;;;;2.55;1.10;;;;;;;25.69;43.08;101236.41;5031652;28;20502;-66
2022/06/06 11:22:45;;;;;;;2.72;0.93;;;;;;;25.82;43.00;101236.53;5031564;28;20052;-66
2022/06/06 11:25:13;;;;;;;2.22;1.35;;;;;;;25.94;43.25;101236.81;5031567;28;20060;-66
2022/06/06 11:27:55;;;;;;;5.35;1.17;;;;;;;26.06;43.28;101237.16;5032669;28;20041;-66
2022/06/06 11:30:24;;;;;;;2.17;0.77;;;;;;;26.12;42.74;101233.59;5030170;28;20265;-66
2022/06/06 11:33:08;;;;;;;1.10;0.65;;;;;;;26.19;42.53;101229.84;5029883;28;20349;-67
2022/06/06 11:35:55;;;;;;;2.95;0.93;;;;;;;26.29;42.15;101230.31;5043881;28;20034;-66
2022/06/06 11:38:41;;;;;;;2.05;1.02;;;;;;;26.38;42.31;101228.28;5032820;28;20100;-67
2022/06/06 11:41:25;;;;;;;1.00;0.80;;;;;;;26.44;42.05;101219.19;5032670;28;20107;-65
2022/06/06 11:44:31;;;;;;;3.38;1.00;;;;;;;26.49;41.89;101219.44;5035566;28;20033;-66
2022/06/06 11:47:16;;;;;;;3.33;1.08;;;;;;;26.64;42.38;101211.03;5036678;28;20049;-66
2022/06/06 11:50:01;;;;;;;;;;;;;;;26.82;42.65;101216.84;5036927;28;20414;-67
2022/06/06 11:53:12;;;;;;;2.72;0.95;;;;;;;27.07;42.52;101224.59;5032404;28;19921;-67
2022/06/06 11:56:00;;;;;;;2.17;0.93;;;;;;;27.11;41.55;101220.38;5030136;28;20380;-66
2022/06/06 11:58:39;;;;;;;2.55;1.00;;;;;;;27.01;41.41;101226.28;5027717;28;20041;-66
2022/06/06 12:01:29;;;;;;;3.08;1.00;;;;;;;26.87;41.06;101211.56;5035495;28;20095;-66
2022/06/06 12:04:37;;;;;;;1.55;0.90;;;;;;;26.69;40.68;101213.16;5035229;28;20051;-66
2022/06/06 12:07:25;;;;;;;3.42;1.20;;;;;;;26.62;40.82;101204.03;5026530;28;20462;-66
2022/06/06 12:10:00;;;;;;;1.95;1.00;;;;;;;26.60;40.92;101218.84;5022119;28;20141;-66
2022/06/06 12:12:46;;;;;;;1.92;1.05;;;;;;;26.47;40.26;101215.19;5035709;28;20120;-66
2022/06/06 12:15:32;;;;;;;2.15;0.77;;;;;;;26.34;40.41;101218.72;5036131;28;20041;-67
2022/06/06 12:18:01;;;;;;;;;;;;;;;26.19;40.75;101220.72;5022370;28;20038;-66
2022/06/06 12:20:49;;;;;;;2.13;1.00;;;;;;;26.06;40.45;101234.41;5035923;28;19921;-66
2022/06/06 12:23:52;;;;;;;5.03;1.10;;;;;;;25.79;40.20;101222.31;5035287;28;20038;-67
2022/06/06 12:26:46;;;;;;;4.28;1.05;;;;;;;25.66;40.36;101228.56;5021685;28;20048;-66
2022/06/06 12:29:43;;;;;;;4.00;0.98;;;;;;;25.51;40.21;101228.59;5028321;28;20056;-66
2022/06/06 12:32:47;;;;;;;2.22;0.85;;;;;;;25.32;39.71;101221.00;5034165;28;20042;-66
2022/06/06 12:35:27;;;;;;;3.35;0.90;;;;;;;25.17;39.96;101226.53;5041039;28;20048;-66
2022/06/06 12:38:25;;;;;;;4.03;1.45;;;;;;;25.08;40.15;101222.22;5035357;28;20037;-66
2022/06/06 12:41:13;;;;;;;2.97;1.08;;;;;;;25.03;40.56;101222.81;5035661;28;20037;-66
2022/06/06 12:44:07;;;;;;;2.75;0.90;;;;;;;24.97;40.51;101219.94;5034395;28;20388;-66
2022/06/06 12:46:56;;;;;;;1.60;0.88;;;;;;;24.89;40.61;101226.41;5033752;28;20381;-66
2022/06/06 12:49:57;;;;;;;1.63;1.00;;;;;;;24.80;40.63;101224.81;5021500;28;20056;-65